Time;durP1;ratioP1;P1;durP2;ratioP2;P2;SDS_P1;SDS_P2;PMS_P1;PMS_P2;Temp;Humidity;BMP_temperature;BMP_pressure;BME280_temperature;BME280_humidity;BME280_pressure;Samples;Min_cycle;Max_cycle;Signal;HPM_P1;HPM_P2
2022/06/05 00:02:03;;;;;;;1999.90;999.90;;;10.60;99.90;;;;;;5065228;28;20075;-77
2022/06/05 00:04:34;;;;;;;1999.90;999.90;;;10.60;99.90;;;;;;5044115;28;20029;-77
2022/06/05 00:07:05;;;;;;;1999.90;999.90;;;10.60;99.90;;;;;;5057548;28;20036;-77
2022/06/05 00:09:40;;;;;;;1999.90;999.90;;;10.60;99.90;;;;;;5054081;28;20052;-76
2022/06/05 00:12:08;;;;;;;1999.90;999.90;;;10.60;99.90;;;;;;5061244;28;20097;-77
2022/06/05 00:14:39;;;;;;;1999.90;999.90;;;10.70;99.90;;;;;;5071141;28;20374;-77
2022/06/05 00:17:23;;;;;;;1999.90;999.90;;;10.70;99.90;;;;;;5067332;28;20408;-77
2022/06/05 00:19:51;;;;;;;1999.90;999.90;;;10.70;99.90;;;;;;5055722;28;20146;-77
2022/06/05 00:22:17;;;;;;;1999.90;999.90;;;10.70;99.90;;;;;;5083125;28;20054;-77
2022/06/05 00:24:43;;;;;;;1999.90;999.90;;;10.80;99.90;;;;;;5069383;28;20059;-76
2022/06/05 00:27:41;;;;;;;1999.90;999.90;;;10.70;99.90;;;;;;5078227;28;20408;-77
2022/06/05 00:30:13;;;;;;;1999.90;999.90;;;10.80;99.90;;;;;;5061465;28;20052;-78
2022/06/05 00:32:41;;;;;;;1999.90;999.90;;;10.70;99.90;;;;;;5071058;28;20528;-78
2022/06/05 00:35:15;;;;;;;1999.90;999.90;;;10.70;99.90;;;;;;5051605;28;20490;-77
2022/06/05 00:38:07;;;;;;;1999.90;999.90;;;10.80;99.90;;;;;;5050962;28;20424;-77
2022/06/05 00:40:47;;;;;;;1999.90;999.90;;;10.70;99.90;;;;;;5061025;28;20050;-77
2022/06/05 00:43:16;;;;;;;1999.90;999.90;;;10.70;99.90;;;;;;5059428;28;20043;-77
2022/06/05 00:45:43;;;;;;;1999.90;999.90;;;10.70;99.90;;;;;;5052504;28;20052;-77
2022/06/05 00:48:10;;;;;;;1999.90;999.90;;;10.80;99.90;;;;;;5064130;28;20060;-77
2022/06/05 00:50:37;;;;;;;1999.90;999.90;;;10.70;99.90;;;;;;5048906;28;20128;-77
2022/06/05 00:53:05;;;;;;;1999.90;999.90;;;10.80;99.90;;;;;;5049698;28;20494;-77
2022/06/05 00:55:37;;;;;;;1999.90;999.90;;;10.80;99.90;;;;;;5059084;28;20047;-77
2022/06/05 00:58:04;;;;;;;1999.90;999.90;;;10.80;99.90;;;;;;5059730;28;20033;-77
2022/06/05 01:00:33;;;;;;;1999.90;999.90;;;10.80;99.90;;;;;;5069117;28;20392;-77
2022/06/05 01:03:02;;;;;;;1999.90;999.90;;;10.80;99.90;;;;;;5058637;28;20048;-77
2022/06/05 01:05:29;;;;;;;1999.90;999.90;;;10.80;99.90;;;;;;5070285;28;20511;-77
2022/06/05 01:07:56;;;;;;;1999.90;999.90;;;10.90;99.90;;;;;;5050665;28;20036;-77
2022/06/05 01:10:28;;;;;;;1999.90;999.90;;;10.90;99.90;;;;;;5050415;28;20036;-77
2022/06/05 01:13:18;;;;;;;1999.90;999.90;;;10.90;99.90;;;;;;5054707;28;20040;-77
2022/06/05 01:15:57;;;;;;;1999.90;999.90;;;10.90;99.90;;;;;;5065526;28;20042;-77
2022/06/05 01:18:44;;;;;;;1999.90;999.90;;;10.90;99.90;;;;;;5073224;28;20073;-76
2022/06/05 01:21:52;;;;;;;1999.90;999.90;;;10.90;99.90;;;;;;5059231;28;20040;-77
2022/06/05 01:24:42;;;;;;;1999.90;999.90;;;11.00;99.90;;;;;;5052327;28;20066;-77
2022/06/05 01:27:13;;;;;;;1999.90;999.90;;;11.00;99.90;;;;;;5080964;28;20073;-76
2022/06/05 01:29:55;;;;;;;1999.90;999.90;;;11.00;99.90;;;;;;5070490;28;20034;-77
2022/06/05 01:32:40;;;;;;;1999.90;999.90;;;11.00;99.90;;;;;;5087875;28;20071;-76
2022/06/05 01:35:17;;;;;;;1999.90;999.90;;;11.00;99.90;;;;;;5066716;28;20043;-77
2022/06/05 01:37:54;;;;;;;1999.90;999.90;;;10.90;99.90;;;;;;5061158;28;20041;-77
2022/06/05 01:40:37;;;;;;;1999.90;999.90;;;11.00;99.90;;;;;;5058722;28;20048;-77
2022/06/05 01:43:09;;;;;;;1999.90;999.90;;;11.00;99.90;;;;;;5054677;28;20084;-77
2022/06/05 01:45:49;;;;;;;1999.90;999.90;;;11.00;99.90;;;;;;5061678;28;20161;-76
2022/06/05 01:48:26;;;;;;;1999.90;999.90;;;11.00;99.90;;;;;;5067504;28;20040;-76
2022/06/05 01:50:57;;;;;;;1999.90;999.90;;;11.00;99.90;;;;;;5051020;28;20043;-76
2022/06/05 01:53:33;;;;;;;1999.90;999.90;;;11.00;99.90;;;;;;5068098;28;20048;-77
2022/06/05 01:56:05;;;;;;;1999.90;999.90;;;11.00;99.90;;;;;;5081212;28;20039;-76
2022/06/05 01:58:42;;;;;;;1999.90;999.90;;;11.00;99.90;;;;;;5064335;28;20390;-77
2022/06/05 02:01:13;;;;;;;1999.90;999.90;;;11.00;99.90;;;;;;5057530;28;20039;-76
2022/06/05 02:03:47;;;;;;;1999.90;999.90;;;11.00;99.90;;;;;;5063983;28;20044;-76
2022/06/05 02:06:22;;;;;;;1999.90;999.90;;;11.00;99.90;;;;;;5042708;28;20040;-77
2022/06/05 02:09:03;;;;;;;1999.90;999.90;;;11.00;99.90;;;;;;5070544;28;20040;-77
2022/06/05 02:11:32;;;;;;;1999.90;999.90;;;10.90;99.90;;;;;;5068623;28;20509;-77
2022/06/05 02:14:06;;;;;;;1999.90;999.90;;;10.90;99.90;;;;;;5064780;28;20044;-77
2022/06/05 02:16:33;;;;;;;1999.90;999.90;;;10.90;99.90;;;;;;5062387;28;20055;-76
2022/06/05 02:19:03;;;;;;;1999.90;999.90;;;10.90;99.90;;;;;;5083622;28;20044;-76
2022/06/05 02:21:29;;;;;;;1999.90;999.90;;;11.00;99.90;;;;;;5064381;28;20051;-77
2022/06/05 02:23:56;;;;;;;1999.90;999.90;;;11.00;99.90;;;;;;5077803;28;20117;-76
2022/06/05 02:26:22;;;;;;;1999.90;999.90;;;11.00;99.90;;;;;;5051263;28;20039;-76
2022/06/05 02:28:48;;;;;;;1999.90;999.90;;;11.00;99.90;;;;;;5053617;28;20047;-77
2022/06/05 02:31:13;;;;;;;1999.90;999.90;;;11.00;99.90;;;;;;5062807;28;20040;-77
2022/06/05 02:34:00;;;;;;;1999.90;999.90;;;11.00;99.90;;;;;;5071326;28;20047;-77
2022/06/05 02:36:35;;;;;;;1999.90;999.90;;;11.00;99.90;;;;;;5053125;28;20045;-78
2022/06/05 02:39:23;;;;;;;1999.90;999.90;;;11.00;99.90;;;;;;5059290;28;20060;-77
2022/06/05 02:41:57;;;;;;;1999.90;999.90;;;11.00;99.90;;;;;;5071747;28;20145;-77
2022/06/05 02:44:42;;;;;;;1999.90;999.90;;;11.00;99.90;;;;;;5080171;28;20050;-77
2022/06/05 02:47:31;;;;;;;1999.90;999.90;;;11.00;99.90;;;;;;5056896;28;20505;-77
2022/06/05 02:50:08;;;;;;;1999.90;999.90;;;11.00;99.90;;;;;;5079590;28;20051;-77
2022/06/05 02:52:35;;;;;;;1999.90;999.90;;;11.00;99.90;;;;;;5048706;28;20047;-77
2022/06/05 02:55:08;;;;;;;1999.90;999.90;;;11.10;99.90;;;;;;5074672;28;20393;-77
2022/06/05 02:57:35;;;;;;;1999.90;999.90;;;11.10;99.90;;;;;;5059983;28;20036;-76
2022/06/05 03:00:03;;;;;;;1999.90;999.90;;;11.10;99.90;;;;;;5054345;28;20561;-77
2022/06/05 03:05:13;;;;;;;1999.90;999.90;;;11.10;99.90;;;;;;5069824;28;20044;-76
2022/06/05 03:07:38;;;;;;;1999.90;999.90;;;11.20;99.90;;;;;;5046792;28;20039;-77
2022/06/05 03:10:04;;;;;;;1999.90;999.90;;;11.20;99.90;;;;;;5064506;28;20125;-77
2022/06/05 03:12:30;;;;;;;1999.90;999.90;;;11.20;99.90;;;;;;5054856;28;20058;-77
2022/06/05 03:15:00;;;;;;;1999.90;999.90;;;11.20;99.90;;;;;;5079382;28;20047;-77
2022/06/05 03:17:26;;;;;;;1999.90;999.90;;;11.20;99.90;;;;;;5063783;28;20489;-77
2022/06/05 03:19:52;;;;;;;1999.90;999.90;;;11.20;99.90;;;;;;5074888;28;20055;-77
2022/06/05 03:22:18;;;;;;;1999.90;999.90;;;11.20;99.90;;;;;;5062710;28;20039;-78
2022/06/05 03:25:04;;;;;;;1999.90;999.90;;;11.30;99.90;;;;;;5058724;28;20060;-77
2022/06/05 03:27:31;;;;;;;1999.90;999.90;;;11.30;99.90;;;;;;4961116;28;20137;-77
2022/06/05 03:29:57;;;;;;;1999.90;999.90;;;11.30;99.90;;;;;;4953065;28;20055;-77
2022/06/05 03:32:24;;;;;;;1999.90;999.90;;;11.30;99.90;;;;;;4981595;28;20443;-77
2022/06/05 03:34:50;;;;;;;1999.90;999.90;;;11.30;99.90;;;;;;4976631;28;20341;-77
2022/06/05 03:37:15;;;;;;;1999.90;999.90;;;11.40;99.90;;;;;;4973937;28;20049;-76
2022/06/05 03:39:42;;;;;;;1999.90;999.90;;;11.50;99.90;;;;;;4971549;28;20067;-75
2022/06/05 03:42:07;;;;;;;1999.90;999.90;;;11.50;99.90;;;;;;4953385;28;20066;-75
2022/06/05 03:44:37;;;;;;;1999.90;999.90;;;11.50;99.90;;;;;;4977025;28;20141;-76
2022/06/05 03:47:04;;;;;;;1999.90;999.90;;;11.60;99.90;;;;;;4976189;28;20157;-77
2022/06/05 03:49:30;;;;;;;1999.90;999.90;;;11.60;99.90;;;;;;4973772;28;20628;-77
2022/06/05 03:51:56;;;;;;;1999.90;999.90;;;11.60;99.90;;;;;;4984042;28;20085;-76
2022/06/05 03:54:21;;;;;;;1999.90;999.90;;;11.60;99.90;;;;;;4965420;28;20105;-77
2022/06/05 03:56:47;;;;;;;1999.90;999.90;;;11.70;99.90;;;;;;4967563;28;20555;-76
2022/06/05 03:59:12;;;;;;;1999.90;999.90;;;11.70;99.90;;;;;;4959790;28;20615;-76
2022/06/05 04:01:38;;;;;;;1999.90;999.90;;;11.70;99.90;;;;;;4952455;28;20050;-76
2022/06/05 04:04:04;;;;;;;1999.90;999.90;;;11.70;99.90;;;;;;4993438;28;20409;-76
2022/06/05 04:06:31;;;;;;;1999.90;999.90;;;11.80;99.90;;;;;;5079530;28;20493;-76
2022/06/05 04:08:59;;;;;;;1999.90;999.90;;;11.80;99.90;;;;;;5078971;28;20488;-76
2022/06/05 04:11:28;;;;;;;1999.90;999.90;;;11.90;99.90;;;;;;5052327;28;20405;-76
2022/06/05 04:13:53;;;;;;;1999.90;999.90;;;11.90;99.90;;;;;;5067060;28;20039;-76
2022/06/05 04:16:21;;;;;;;1999.90;999.90;;;12.00;99.90;;;;;;5052488;28;20478;-77
2022/06/05 04:18:48;;;;;;;1999.90;999.90;;;12.00;99.90;;;;;;5076008;28;20831;-76
2022/06/05 04:21:20;;;;;;;1999.90;999.90;;;12.00;99.90;;;;;;5054112;28;20075;-77
2022/06/05 04:23:47;;;;;;;1999.90;999.90;;;12.10;99.90;;;;;;5059837;28;20063;-77
2022/06/05 04:26:15;;;;;;;1999.90;999.90;;;12.20;99.90;;;;;;5058367;28;20048;-77
2022/06/05 04:28:41;;;;;;;1999.90;999.90;;;12.20;99.90;;;;;;5056603;28;20121;-76
2022/06/05 04:31:27;;;;;;;1999.90;999.90;;;12.20;99.90;;;;;;5074150;28;20115;-76
2022/06/05 04:33:56;;;;;;;1999.90;999.90;;;12.30;99.90;;;;;;5074128;28;20128;-76
2022/06/05 04:36:22;;;;;;;1999.90;999.90;;;12.50;99.90;;;;;;5068086;28;20032;-76
2022/06/05 04:38:48;;;;;;;1999.90;999.90;;;12.60;99.90;;;;;;5066644;28;20108;-77
2022/06/05 04:41:15;;;;;;;1999.90;999.90;;;12.70;99.90;;;;;;5044728;28;20051;-76
2022/06/05 04:43:41;;;;;;;1999.90;999.90;;;12.80;99.90;;;;;;5053359;28;20062;-77
2022/06/05 04:46:08;;;;;;;1999.90;999.90;;;12.90;99.90;;;;;;5070723;28;20051;-77
2022/06/05 04:48:34;;;;;;;1999.90;999.90;;;13.00;99.90;;;;;;5055248;28;20552;-77
2022/06/05 04:51:12;;;;;;;1999.90;999.90;;;13.00;99.90;;;;;;5051812;28;20040;-76
2022/06/05 04:53:39;;;;;;;1999.90;999.90;;;13.00;99.90;;;;;;5060998;28;20047;-78
2022/06/05 04:56:16;;;;;;;1999.90;999.90;;;13.00;99.90;;;;;;5053517;28;20048;-78
2022/06/05 04:58:42;;;;;;;1999.90;999.90;;;13.10;99.90;;;;;;5056040;28;20131;-77
2022/06/05 05:01:13;;;;;;;1999.90;999.90;;;13.10;99.90;;;;;;5062456;28;20031;-76
2022/06/05 05:03:40;;;;;;;1999.90;999.90;;;13.10;99.90;;;;;;5048828;28;20044;-75
2022/06/05 05:06:05;;;;;;;1999.90;999.90;;;13.10;99.90;;;;;;5051587;28;20432;-77
2022/06/05 05:08:32;;;;;;;1999.90;999.90;;;13.20;99.90;;;;;;5054162;28;20036;-77
2022/06/05 05:11:01;;;;;;;1999.90;999.90;;;13.20;99.90;;;;;;5062471;28;20036;-77
2022/06/05 05:13:47;;;;;;;1999.90;999.90;;;13.30;99.90;;;;;;5057868;28;20035;-77
2022/06/05 05:16:12;;;;;;;1999.90;999.90;;;13.40;99.90;;;;;;4985146;28;20054;-78
2022/06/05 05:18:41;;;;;;;1999.90;999.90;;;13.40;99.90;;;;;;4962333;28;20061;-76
2022/06/05 05:21:34;;;;;;;1999.90;999.90;;;13.50;99.90;;;;;;4974919;28;20606;-77
2022/06/05 05:24:03;;;;;;;1999.90;999.90;;;13.70;99.90;;;;;;4905167;29;20122;-77
2022/06/05 05:26:32;;;;;;;1999.90;999.90;;;14.00;99.90;;;;;;4910025;29;20109;-78
2022/06/05 05:28:59;;;;;;;1999.90;999.90;;;14.20;99.90;;;;;;4908940;29;20146;-78
2022/06/05 05:31:50;;;;;;;1999.90;999.90;;;14.30;99.90;;;;;;4900784;29;20166;-77
2022/06/05 05:34:15;;;;;;;1999.90;999.90;;;14.40;99.90;;;;;;4837549;29;20053;-76
2022/06/05 05:36:41;;;;;;;1999.90;999.90;;;14.60;99.90;;;;;;4874264;29;20152;-77
2022/06/05 05:42:12;;;;;;;1999.90;999.90;;;14.70;99.90;;;;;;4824144;29;20054;-76
2022/06/05 05:44:43;;;;;;;1999.90;999.90;;;14.70;99.90;;;;;;4825174;29;20054;-77
2022/06/05 05:47:14;;;;;;;1999.90;999.90;;;14.70;99.90;;;;;;4824957;29;20546;-76
2022/06/05 05:49:42;;;;;;;1999.90;999.90;;;14.70;99.90;;;;;;4824440;29;20050;-77
2022/06/05 05:52:09;;;;;;;1999.90;999.90;;;14.70;99.90;;;;;;4832695;29;20070;-76
2022/06/05 05:54:35;;;;;;;1999.90;999.90;;;14.80;99.90;;;;;;4913847;29;20122;-76
2022/06/05 05:57:01;;;;;;;1999.90;999.90;;;14.80;99.90;;;;;;4895593;29;20047;-76
2022/06/05 05:59:29;;;;;;;1999.90;999.90;;;14.80;99.90;;;;;;4881907;29;20060;-76
2022/06/05 06:01:54;;;;;;;1999.90;999.90;;;14.90;99.90;;;;;;4883403;29;20056;-77
2022/06/05 06:04:20;;;;;;;1999.90;999.90;;;15.00;99.90;;;;;;4867110;29;20072;-77
2022/06/05 06:06:49;;;;;;;1999.90;999.90;;;15.00;99.90;;;;;;4884031;29;20056;-76
2022/06/05 06:09:15;;;;;;;1999.90;999.90;;;15.10;99.90;;;;;;4880946;29;20071;-77
2022/06/05 06:11:40;;;;;;;1999.90;999.90;;;15.20;99.90;;;;;;4926561;28;20058;-76
2022/06/05 06:14:06;;;;;;;1999.90;999.90;;;15.30;99.90;;;;;;4965735;28;20042;-77
2022/06/05 06:16:33;;;;;;;1999.90;999.90;;;15.40;99.90;;;;;;4946914;28;20047;-75
2022/06/05 06:18:59;;;;;;;1999.90;999.90;;;15.50;99.90;;;;;;5020558;28;20111;-76
2022/06/05 06:21:25;;;;;;;1999.90;999.90;;;15.60;99.90;;;;;;5075911;28;20086;-78
2022/06/05 06:23:51;;;;;;;1999.90;999.90;;;15.60;99.90;;;;;;5070174;28;20113;-76
2022/06/05 06:26:17;;;;;;;1999.90;999.90;;;15.70;99.90;;;;;;5068486;28;20253;-77
2022/06/05 06:28:44;;;;;;;1999.90;999.90;;;15.80;99.90;;;;;;5066318;28;20513;-76
2022/06/05 06:31:12;;;;;;;1999.90;999.90;;;15.90;99.90;;;;;;5067650;28;20045;-77
2022/06/05 06:33:39;;;;;;;1999.90;999.90;;;16.00;99.90;;;;;;5049903;28;20048;-76
2022/06/05 06:36:08;;;;;;;1999.90;999.90;;;16.10;99.90;;;;;;5068449;28;20108;-76
2022/06/05 06:38:34;;;;;;;1999.90;999.90;;;16.20;99.90;;;;;;5081799;28;20118;-76
2022/06/05 06:41:06;;;;;;;1999.90;999.90;;;16.30;99.90;;;;;;5080835;28;20151;-76
2022/06/05 06:43:32;;;;;;;1999.90;999.90;;;16.30;99.90;;;;;;5095772;28;20048;-76
2022/06/05 06:45:58;;;;;;;1999.90;999.90;;;16.30;99.90;;;;;;5052617;28;20404;-76
2022/06/05 06:48:25;;;;;;;1999.90;999.90;;;16.40;99.90;;;;;;5065606;28;20540;-77
2022/06/05 06:50:56;;;;;;;1999.90;999.90;;;16.50;99.90;;;;;;5053222;28;20508;-76
2022/06/05 06:53:22;;;;;;;1999.90;999.90;;;16.60;99.90;;;;;;5081559;28;20117;-78
2022/06/05 06:55:49;;;;;;;1999.90;999.90;;;16.70;99.90;;;;;;5065687;28;20036;-76
2022/06/05 06:58:15;;;;;;;1999.90;999.90;;;16.90;99.90;;;;;;5072152;28;20033;-77
2022/06/05 07:00:42;;;;;;;1999.90;999.90;;;17.10;99.90;;;;;;5050385;28;20042;-78
2022/06/05 07:03:08;;;;;;;1999.90;999.90;;;17.10;99.90;;;;;;5071948;28;20414;-76
2022/06/05 07:05:34;;;;;;;1999.90;999.90;;;17.30;99.90;;;;;;5047685;28;20048;-77
2022/06/05 07:08:00;;;;;;;1999.90;999.90;;;17.40;99.90;;;;;;5067675;28;20098;-78
2022/06/05 07:10:26;;;;;;;1999.90;999.90;;;17.60;99.90;;;;;;5056730;28;20040;-76
2022/06/05 07:12:52;;;;;;;1999.90;999.90;;;17.80;99.90;;;;;;5072760;28;20034;-77
2022/06/05 07:15:18;;;;;;;1999.90;999.90;;;18.00;99.90;;;;;;5051676;28;20545;-77
2022/06/05 07:17:44;;;;;;;1999.90;999.90;;;18.10;99.90;;;;;;5049529;28;20550;-76
2022/06/05 07:20:10;;;;;;;1999.90;999.90;;;18.20;99.90;;;;;;5053884;28;20045;-77
2022/06/05 07:22:35;;;;;;;1999.90;999.90;;;18.30;99.90;;;;;;5055802;28;20063;-78
2022/06/05 07:25:01;;;;;;;1999.90;999.90;;;18.40;99.90;;;;;;5053874;28;20126;-78
2022/06/05 07:27:27;;;;;;;1999.90;999.90;;;18.60;99.90;;;;;;5059537;28;20055;-77
2022/06/05 07:29:53;;;;;;;1999.90;999.90;;;18.80;99.90;;;;;;5057289;28;20413;-77
2022/06/05 07:32:20;;;;;;;1999.90;999.90;;;18.90;99.90;;;;;;5052392;28;20036;-78
2022/06/05 07:34:47;;;;;;;1999.90;999.90;;;19.10;99.90;;;;;;5038774;28;20033;-77
2022/06/05 07:37:16;;;;;;;1999.90;999.90;;;19.30;99.90;;;;;;5071507;28;20036;-78
2022/06/05 07:39:42;;;;;;;1999.90;999.90;;;19.60;99.90;;;;;;5061414;28;20039;-77
2022/06/05 07:42:09;;;;;;;1999.90;999.90;;;19.70;99.90;;;;;;5071592;28;20114;-79
2022/06/05 07:44:36;;;;;;;1999.90;999.90;;;19.90;99.90;;;;;;5043350;28;20044;-78
2022/06/05 07:47:06;;;;;;;1999.90;999.90;;;19.90;99.90;;;;;;5052784;28;20485;-76
2022/06/05 07:49:34;;;;;;;1999.90;999.90;;;19.90;99.90;;;;;;5071363;28;20067;-75
2022/06/05 07:54:45;;;;;;;1999.90;999.90;;;20.40;99.90;;;;;;5058624;28;20047;-77
2022/06/05 07:57:13;;;;;;;1999.90;999.90;;;20.60;99.90;;;;;;5051752;28;20036;-78
2022/06/05 07:59:44;;;;;;;1999.90;999.90;;;20.70;99.90;;;;;;5067258;28;20540;-77
2022/06/05 08:02:15;;;;;;;1999.90;999.90;;;20.60;99.90;;;;;;5052493;28;20054;-77
2022/06/05 08:04:42;;;;;;;1999.90;999.90;;;20.70;99.90;;;;;;5058200;28;20036;-77
2022/06/05 08:07:10;;;;;;;1999.90;999.90;;;20.90;99.90;;;;;;5065123;28;20119;-76
2022/06/05 08:09:37;;;;;;;1999.90;999.90;;;20.90;99.90;;;;;;5064005;28;20054;-77
2022/06/05 08:12:05;;;;;;;1999.90;999.90;;;20.90;99.90;;;;;;5057203;28;20075;-76
2022/06/05 08:14:34;;;;;;;1999.90;999.90;;;20.90;99.90;;;;;;5065310;28;20036;-76
2022/06/05 08:17:00;;;;;;;1999.90;999.90;;;20.90;99.90;;;;;;5068993;28;20451;-78
2022/06/05 08:19:26;;;;;;;1999.90;999.90;;;20.90;99.90;;;;;;5062900;28;20040;-78
2022/06/05 08:21:52;;;;;;;1999.90;999.90;;;20.90;99.90;;;;;;5074183;28;20518;-78
2022/06/05 08:24:18;;;;;;;1999.90;999.90;;;21.00;99.90;;;;;;5055239;28;20545;-78
2022/06/05 08:26:44;;;;;;;1999.90;999.90;;;21.20;99.90;;;;;;5036579;28;20052;-77
2022/06/05 08:29:10;;;;;;;1999.90;999.90;;;21.10;99.90;;;;;;5080074;28;20051;-76
2022/06/05 08:31:37;;;;;;;1999.90;999.90;;;21.10;99.90;;;;;;5073030;28;20027;-77
2022/06/05 08:34:04;;;;;;;1999.90;999.90;;;21.30;99.90;;;;;;5069895;28;20047;-78
2022/06/05 08:36:31;;;;;;;1999.90;999.90;;;21.40;99.90;;;;;;5056492;28;20587;-78
2022/06/05 08:42:04;;;;;;;1999.90;999.90;;;21.40;99.90;;;;;;5063214;28;20105;-77
2022/06/05 08:44:38;;;;;;;1999.90;999.90;;;21.40;99.90;;;;;;5068510;28;20059;-76
2022/06/05 08:47:20;;;;;;;1999.90;999.90;;;21.30;99.90;;;;;;5054647;28;20048;-77
2022/06/05 08:49:53;;;;;;;1999.90;999.90;;;21.20;99.90;;;;;;5063129;28;20040;-75
2022/06/05 08:52:32;;;;;;;1999.90;999.90;;;21.30;99.90;;;;;;5052157;28;20059;-76
2022/06/05 08:55:32;;;;;;;1999.90;999.90;;;21.40;99.90;;;;;;5063204;28;20044;-77
2022/06/05 08:58:05;;;;;;;1999.90;999.90;;;21.70;99.90;;;;;;5058823;28;20047;-78
2022/06/05 09:00:39;;;;;;;1999.90;999.90;;;21.80;99.90;;;;;;5069508;28;20436;-77
2022/06/05 09:03:21;;;;;;;1999.90;999.90;;;21.80;99.90;;;;;;5060626;28;20134;-76
2022/06/05 09:05:54;;;;;;;1999.90;999.90;;;21.80;99.90;;;;;;5039361;28;20040;-78
2022/06/05 09:08:26;;;;;;;1999.90;999.90;;;21.90;99.90;;;;;;5056489;28;20047;-77
2022/06/05 09:10:57;;;;;;;1999.90;999.90;;;22.00;99.90;;;;;;5043663;28;20119;-77
2022/06/05 09:13:29;;;;;;;1999.90;999.90;;;22.20;99.90;;;;;;5057589;28;20040;-76
2022/06/05 09:15:59;;;;;;;1999.90;999.90;;;22.20;99.90;;;;;;5042387;28;20323;-78
2022/06/05 09:18:30;;;;;;;1999.90;999.90;;;22.40;99.90;;;;;;5052715;28;20116;-77
2022/06/05 09:21:05;;;;;;;1999.90;999.90;;;22.50;99.90;;;;;;5060342;28;20456;-77
2022/06/05 09:23:34;;;;;;;1999.90;999.90;;;22.50;99.90;;;;;;5046311;28;20555;-76
2022/06/05 09:26:08;;;;;;;1999.90;999.90;;;22.50;99.90;;;;;;5044375;28;20054;-78
2022/06/05 09:29:00;;;;;;;1999.90;999.90;;;22.40;99.90;;;;;;5050360;28;20074;-76
2022/06/05 09:31:48;;;;;;;1999.90;999.90;;;22.40;99.90;;;;;;5051109;28;20036;-78
2022/06/05 09:34:21;;;;;;;1999.90;999.90;;;22.30;99.90;;;;;;5053737;28;20044;-77
2022/06/05 09:36:59;;;;;;;1999.90;999.90;;;22.40;99.90;;;;;;5048604;28;20063;-76
2022/06/05 09:39:38;;;;;;;1999.90;999.90;;;22.50;99.90;;;;;;5047290;28;20382;-77
2022/06/05 09:42:07;;;;;;;1999.90;999.90;;;22.70;99.90;;;;;;5039323;28;20045;-76
2022/06/05 09:44:50;;;;;;;1999.90;999.90;;;23.00;99.90;;;;;;5037025;28;20047;-76
2022/06/05 09:47:27;;;;;;;1999.90;999.90;;;23.20;99.90;;;;;;5039126;28;20053;-77
2022/06/05 09:50:04;;;;;;;1999.90;999.90;;;23.40;99.90;;;;;;5043988;28;20108;-77
2022/06/05 09:52:31;;;;;;;1999.90;999.90;;;23.80;99.90;;;;;;5051795;28;20410;-76
2022/06/05 09:55:09;;;;;;;1999.90;999.90;;;23.80;99.90;;;;;;5054483;28;20071;-77
2022/06/05 10:00:33;;;;;;;1999.90;999.90;;;24.00;99.50;;;;;;5066280;28;20040;-78
2022/06/05 10:03:06;;;;;;;1999.90;999.90;;;23.90;98.90;;;;;;5058270;28;20086;-77
2022/06/05 10:05:35;;;;;;;1999.90;999.90;;;23.70;98.20;;;;;;5065920;28;20125;-76
2022/06/05 10:08:07;;;;;;;1999.90;999.90;;;23.60;98.90;;;;;;5058739;28;20066;-76
2022/06/05 10:10:39;;;;;;;1999.90;999.90;;;23.40;98.80;;;;;;5060821;28;20497;-77
2022/06/05 10:13:21;;;;;;;1999.90;999.90;;;23.30;99.90;;;;;;5037027;28;20436;-76
2022/06/05 10:16:02;;;;;;;1999.90;999.90;;;23.30;98.80;;;;;;5035446;28;20051;-79
2022/06/05 10:18:37;;;;;;;1999.90;999.90;;;23.10;98.80;;;;;;5061904;28;20035;-77
2022/06/05 10:21:09;;;;;;;1999.90;999.90;;;23.10;98.70;;;;;;5034302;28;20040;-76
2022/06/05 10:24:10;;;;;;;1999.90;999.90;;;23.00;99.00;;;;;;5051913;28;20056;-76
2022/06/05 10:26:39;;;;;;;1999.90;999.90;;;23.00;99.70;;;;;;4980688;28;20068;-76
2022/06/05 10:29:26;;;;;;;1999.90;999.90;;;23.00;99.20;;;;;;5078093;28;20044;-76
2022/06/05 10:31:58;;;;;;;1999.90;999.90;;;23.10;98.70;;;;;;5053603;28;20047;-75
2022/06/05 10:34:41;;;;;;;1999.90;999.90;;;23.10;98.20;;;;;;5058036;28;20040;-75
2022/06/05 10:37:18;;;;;;;1999.90;999.90;;;23.00;99.30;;;;;;5059634;28;20054;-78
2022/06/05 10:40:09;;;;;;;1999.90;999.90;;;23.00;98.60;;;;;;5046940;28;20493;-75
2022/06/05 10:43:01;;;;;;;1999.90;999.90;;;23.00;98.80;;;;;;5073129;28;20484;-76
2022/06/05 10:45:42;;;;;;;1999.90;999.90;;;23.00;99.20;;;;;;5057439;28;20130;-76
2022/06/05 10:48:45;;;;;;;1999.90;999.90;;;23.00;98.60;;;;;;5044329;28;20036;-76
2022/06/05 10:51:32;;;;;;;1999.90;999.90;;;23.10;99.00;;;;;;5058161;28;20036;-76
2022/06/05 10:54:13;;;;;;;1999.90;999.90;;;23.10;99.20;;;;;;5043838;28;20065;-77
2022/06/05 10:56:55;;;;;;;1999.90;999.90;;;23.30;99.10;;;;;;5065924;28;20064;-76
2022/06/05 10:59:39;;;;;;;1999.90;999.90;;;23.40;99.10;;;;;;5075012;28;20040;-77
2022/06/05 11:02:36;;;;;;;1999.90;999.90;;;23.40;99.10;;;;;;5070033;28;20043;-77
2022/06/05 11:05:29;;;;;;;1999.90;999.90;;;23.30;99.20;;;;;;5041703;28;20039;-77
2022/06/05 11:08:00;;;;;;;1999.90;999.90;;;23.30;99.60;;;;;;5063301;28;20092;-78
2022/06/05 11:14:01;;;;;;;1999.90;999.90;;;23.40;99.70;;;;;;5068314;28;20163;-77
2022/06/05 11:16:54;;;;;;;1999.90;999.90;;;23.40;99.80;;;;;;5069453;28;20509;-76
2022/06/05 11:19:30;;;;;;;;;;;23.50;99.40;;;;;;5065850;28;20043;-76
2022/06/05 11:22:00;;;;;;;1999.90;999.90;;;23.40;98.20;;;;;;5057041;28;20011;-75
2022/06/05 11:24:30;;;;;;;1999.90;999.90;;;23.30;98.40;;;;;;5058649;28;20177;-77
2022/06/05 11:27:28;;;;;;;1999.90;999.90;;;23.30;98.00;;;;;;5071780;28;20101;-76
2022/06/05 11:30:05;;;;;;;1999.90;999.90;;;23.20;98.70;;;;;;4982258;28;20479;-78
2022/06/05 11:32:53;;;;;;;1999.90;999.90;;;23.30;99.90;;;;;;4989388;28;20046;-75
2022/06/05 11:35:43;;;;;;;1999.90;999.90;;;23.40;98.40;;;;;;4974191;28;20047;-76
2022/06/05 11:38:38;;;;;;;1999.90;999.90;;;23.30;98.90;;;;;;4989513;28;20037;-76
2022/06/05 11:41:25;;;;;;;1999.90;999.90;;;23.30;99.10;;;;;;4978039;28;20057;-77
2022/06/05 11:44:15;;;;;;;1999.90;999.90;;;23.30;98.40;;;;;;4979037;28;20049;-77
2022/06/05 11:46:51;;;;;;;1999.90;999.90;;;23.30;98.70;;;;;;5000042;28;20054;-76
2022/06/05 11:49:24;;;;;;;1999.90;999.90;;;23.40;98.20;;;;;;4993237;28;20120;-74
2022/06/05 11:52:02;;;;;;;1999.90;999.90;;;23.30;99.00;;;;;;4977129;28;20108;-75
2022/06/05 11:54:33;;;;;;;1999.90;999.90;;;23.40;99.40;;;;;;4999521;28;20069;-76
2022/06/05 11:57:21;;;;;;;1999.90;999.90;;;23.40;98.90;;;;;;4958209;28;20061;-77
2022/06/05 12:00:04;;;;;;;1999.90;999.90;;;23.50;98.20;;;;;;4970284;28;20060;-76
2022/06/05 12:02:51;;;;;;;1999.90;999.90;;;23.60;99.10;;;;;;4955361;28;20057;-75
2022/06/05 12:05:25;;;;;;;1999.90;999.90;;;23.70;98.70;;;;;;4966747;28;20046;-77
2022/06/05 12:07:58;;;;;;;1999.90;999.90;;;23.80;97.90;;;;;;5065183;28;20037;-76
2022/06/05 12:10:28;;;;;;;1999.90;999.90;;;23.80;97.60;;;;;;5041011;28;20056;-76
2022/06/05 12:13:23;;;;;;;1999.90;999.90;;;23.80;98.40;;;;;;5055700;28;20462;-77
2022/06/05 12:16:06;;;;;;;1999.90;999.90;;;23.80;98.20;;;;;;5049506;28;20084;-77
2022/06/05 12:18:54;;;;;;;1999.90;999.90;;;23.90;97.70;;;;;;5048118;28;20127;-76
2022/06/05 12:21:28;;;;;;;1999.90;999.90;;;23.90;97.60;;;;;;5070256;28;20101;-75
2022/06/05 12:24:22;;;;;;;1999.90;999.90;;;23.90;98.40;;;;;;5062419;28;20152;-75
2022/06/05 12:27:15;;;;;;;1999.90;999.90;;;24.10;98.70;;;;;;5052981;28;20193;-76
2022/06/05 12:29:47;;;;;;;1999.90;999.90;;;24.20;98.00;;;;;;5065190;28;20105;-77
2022/06/05 12:32:29;;;;;;;1999.90;999.90;;;24.20;97.30;;;;;;5052653;28;20168;-76
2022/06/05 12:35:00;;;;;;;1999.90;999.90;;;24.20;97.30;;;;;;5037817;28;20591;-76
2022/06/05 12:37:36;;;;;;;1999.90;999.90;;;24.20;97.10;;;;;;5041243;28;20085;-76
2022/06/05 12:40:03;;;;;;;1999.90;999.90;;;24.20;96.70;;;;;;5065882;28;20119;-75
2022/06/05 12:42:41;;;;;;;1999.90;999.90;;;24.20;97.10;;;;;;5056275;28;20431;-76
2022/06/05 12:45:22;;;;;;;1999.90;999.90;;;24.20;98.10;;;;;;5043713;28;20036;-76